sensor_id;sensor_type;location;lat;lon;timestamp;pressure;altitude;pressure_sealevel;temperature;humidity
11487;BME280;10510;47.942;9.442;2024-01-30T00:00:31;95937.63;;;-2.33;100.00
11487;BME280;10510;47.942;9.442;2024-01-30T00:02:32;95940.19;;;-2.33;100.00
11487;BME280;10510;47.942;9.442;2024-01-30T00:04:32;95942.00;;;-2.35;100.00
11487;BME280;10510;47.942;9.442;2024-01-30T00:06:32;95945.53;;;-2.38;100.00
11487;BME280;10510;47.942;9.442;2024-01-30T00:08:33;95943.88;;;-2.39;100.00
11487;BME280;10510;47.942;9.442;2024-01-30T00:10:33;95940.56;;;-2.41;100.00
11487;BME280;10510;47.942;9.442;2024-01-30T00:12:34;95945.69;;;-2.41;100.00
11487;BME280;10510;47.942;9.442;2024-01-30T00:14:34;95946.56;;;-2.42;100.00
11487;BME280;10510;47.942;9.442;2024-01-30T00:16:34;95949.13;;;-2.42;100.00
11487;BME280;10510;47.942;9.442;2024-01-30T00:18:35;95949.91;;;-2.40;100.00
11487;BME280;10510;47.942;9.442;2024-01-30T00:20:35;95954.25;;;-2.42;100.00
11487;BME280;10510;47.942;9.442;2024-01-30T00:22:36;95956.81;;;-2.42;100.00
11487;BME280;10510;47.942;9.442;2024-01-30T00:24:36;95961.09;;;-2.42;100.00
11487;BME280;10510;47.942;9.442;2024-01-30T00:26:36;95953.50;;;-2.44;100.00
11487;BME280;10510;47.942;9.442;2024-01-30T00:28:41;95956.06;;;-2.44;100.00
11487;BME280;10510;47.942;9.442;2024-01-30T00:30:41;95957.03;;;-2.46;100.00
11487;BME280;10510;47.942;9.442;2024-01-30T00:32:42;95949.28;;;-2.45;100.00
11487;BME280;10510;47.942;9.442;2024-01-30T00:34:42;95949.28;;;-2.45;100.00
11487;BME280;10510;47.942;9.442;2024-01-30T00:36:42;95950.03;;;-2.43;100.00
11487;BME280;10510;47.942;9.442;2024-01-30T00:38:43;95951.78;;;-2.43;100.00
11487;BME280;10510;47.942;9.442;2024-01-30T00:40:43;95951.00;;;-2.45;100.00
11487;BME280;10510;47.942;9.442;2024-01-30T00:42:44;95951.94;;;-2.46;100.00
11487;BME280;10510;47.942;9.442;2024-01-30T00:44:44;95948.53;;;-2.47;100.00
11487;BME280;10510;47.942;9.442;2024-01-30T00:46:45;95952.06;;;-2.49;100.00
11487;BME280;10510;47.942;9.442;2024-01-30T00:48:45;95947.09;;;-2.53;100.00
11487;BME280;10510;47.942;9.442;2024-01-30T00:50:46;95952.22;;;-2.53;100.00
11487;BME280;10510;47.942;9.442;2024-01-30T00:52:46;95952.41;;;-2.57;100.00
11487;BME280;10510;47.942;9.442;2024-01-30T00:54:46;95948.34;;;-2.61;100.00
11487;BME280;10510;47.942;9.442;2024-01-30T00:56:47;95944.13;;;-2.62;100.00
11487;BME280;10510;47.942;9.442;2024-01-30T00:58:47;95943.22;;;-2.61;100.00
11487;BME280;10510;47.942;9.442;2024-01-30T01:00:47;95941.50;;;-2.61;100.00
11487;BME280;10510;47.942;9.442;2024-01-30T01:02:48;95946.66;;;-2.62;100.00
11487;BME280;10510;47.942;9.442;2024-01-30T01:04:48;95946.00;;;-2.66;100.00
11487;BME280;10510;47.942;9.442;2024-01-30T01:06:48;95945.22;;;-2.68;100.00
11487;BME280;10510;47.942;9.442;2024-01-30T01:08:48;95946.97;;;-2.68;100.00
11487;BME280;10510;47.942;9.442;2024-01-30T01:10:49;95946.09;;;-2.67;100.00
11487;BME280;10510;47.942;9.442;2024-01-30T01:12:49;95932.44;;;-2.68;100.00
11487;BME280;10510;47.942;9.442;2024-01-30T01:14:49;95940.19;;;-2.69;100.00
11487;BME280;10510;47.942;9.442;2024-01-30T01:16:50;95938.53;;;-2.70;100.00
11487;BME280;10510;47.942;9.442;2024-01-30T01:18:50;95935.97;;;-2.70;100.00
11487;BME280;10510;47.942;9.442;2024-01-30T01:20:50;95935.97;;;-2.70;100.00
11487;BME280;10510;47.942;9.442;2024-01-30T01:22:51;95947.88;;;-2.69;100.00
11487;BME280;10510;47.942;9.442;2024-01-30T01:24:52;95943.53;;;-2.67;100.00
11487;BME280;10510;47.942;9.442;2024-01-30T01:26:52;95946.09;;;-2.67;100.00
11487;BME280;10510;47.942;9.442;2024-01-30T01:28:53;95950.28;;;-2.66;100.00
11487;BME280;10510;47.942;9.442;2024-01-30T01:30:53;95949.47;;;-2.67;100.00
11487;BME280;10510;47.942;9.442;2024-01-30T01:32:59;95952.84;;;-2.66;100.00
11487;BME280;10510;47.942;9.442;2024-01-30T01:35:02;95952.03;;;-2.67;100.00
11487;BME280;10510;47.942;9.442;2024-01-30T01:37:04;95957.16;;;-2.67;100.00
11487;BME280;10510;47.942;9.442;2024-01-30T01:39:04;95953.75;;;-2.67;100.00
11487;BME280;10510;47.942;9.442;2024-01-30T01:41:04;95959.69;;;-2.67;100.00
11487;BME280;10510;47.942;9.442;2024-01-30T01:43:05;95956.22;;;-2.66;100.00
11487;BME280;10510;47.942;9.442;2024-01-30T01:45:07;95954.63;;;-2.68;100.00
11487;BME280;10510;47.942;9.442;2024-01-30T01:47:07;95957.34;;;-2.71;100.00
11487;BME280;10510;47.942;9.442;2024-01-30T01:49:08;95958.16;;;-2.71;100.00
11487;BME280;10510;47.942;9.442;2024-01-30T01:51:09;95955.59;;;-2.71;100.00
11487;BME280;10510;47.942;9.442;2024-01-30T01:53:09;95953.91;;;-2.70;100.00
11487;BME280;10510;47.942;9.442;2024-01-30T01:55:11;95959.91;;;-2.71;100.00
11487;BME280;10510;47.942;9.442;2024-01-30T01:57:12;95952.22;;;-2.71;100.00
11487;BME280;10510;47.942;9.442;2024-01-30T01:59:13;95955.69;;;-2.72;100.00
11487;BME280;10510;47.942;9.442;2024-01-30T02:01:13;95958.25;;;-2.72;100.00
11487;BME280;10510;47.942;9.442;2024-01-30T02:03:16;95954.88;;;-2.73;100.00
11487;BME280;10510;47.942;9.442;2024-01-30T02:05:18;95960.03;;;-2.75;100.00
11487;BME280;10510;47.942;9.442;2024-01-30T02:07:18;95954.88;;;-2.73;100.00
11487;BME280;10510;47.942;9.442;2024-01-30T02:09:19;95955.75;;;-2.74;100.00
11487;BME280;10510;47.942;9.442;2024-01-30T02:11:23;95953.19;;;-2.74;100.00
11487;BME280;10510;47.942;9.442;2024-01-30T02:13:24;95956.72;;;-2.77;100.00
11487;BME280;10510;47.942;9.442;2024-01-30T02:15:24;95956.72;;;-2.77;100.00
11487;BME280;10510;47.942;9.442;2024-01-30T02:17:24;95955.16;;;-2.79;100.00
11487;BME280;10510;47.942;9.442;2024-01-30T02:19:24;95946.63;;;-2.80;100.00
11487;BME280;10510;47.942;9.442;2024-01-30T02:21:25;95955.34;;;-2.84;100.00
11487;BME280;10510;47.942;9.442;2024-01-30T02:23:25;95940.09;;;-2.85;100.00
11487;BME280;10510;47.942;9.442;2024-01-30T02:25:38;95947.97;;;-2.90;100.00
11487;BME280;10510;47.942;9.442;2024-01-30T02:27:39;95947.97;;;-2.90;100.00
11487;BME280;10510;47.942;9.442;2024-01-30T02:29:39;95946.16;;;-2.88;100.00
11487;BME280;10510;47.942;9.442;2024-01-30T02:31:39;95939.38;;;-2.89;100.00
11487;BME280;10510;47.942;9.442;2024-01-30T02:33:40;95942.84;;;-2.90;100.00
11487;BME280;10510;47.942;9.442;2024-01-30T02:35:40;95938.53;;;-2.89;100.00
11487;BME280;10510;47.942;9.442;2024-01-30T02:37:40;95940.19;;;-2.88;100.00
11487;BME280;10510;47.942;9.442;2024-01-30T02:39:41;95932.50;;;-2.88;100.00
11487;BME280;10510;47.942;9.442;2024-01-30T02:41:41;95931.69;;;-2.89;100.00
11487;BME280;10510;47.942;9.442;2024-01-30T02:43:41;95930.88;;;-2.89;100.00
11487;BME280;10510;47.942;9.442;2024-01-30T02:45:42;95936.06;;;-2.91;100.00
11487;BME280;10510;47.942;9.442;2024-01-30T02:47:42;95933.56;;;-2.92;100.00
11487;BME280;10510;47.942;9.442;2024-01-30T02:49:42;95935.31;;;-2.93;100.00
11487;BME280;10510;47.942;9.442;2024-01-30T02:51:42;95938.69;;;-2.92;100.00
11487;BME280;10510;47.942;9.442;2024-01-30T02:53:43;95930.97;;;-2.91;100.00
11487;BME280;10510;47.942;9.442;2024-01-30T02:55:43;95932.59;;;-2.90;100.00
11487;BME280;10510;47.942;9.442;2024-01-30T02:57:44;95937.56;;;-2.87;100.00
11487;BME280;10510;47.942;9.442;2024-01-30T02:59:44;95937.56;;;-2.87;100.00
11487;BME280;10510;47.942;9.442;2024-01-30T03:01:45;95935.03;;;-2.87;100.00
11487;BME280;10510;47.942;9.442;2024-01-30T03:03:46;95936.66;;;-2.86;100.00
11487;BME280;10510;47.942;9.442;2024-01-30T03:05:46;95935.84;;;-2.86;100.00
11487;BME280;10510;47.942;9.442;2024-01-30T03:07:47;95931.53;;;-2.86;100.00
11487;BME280;10510;47.942;9.442;2024-01-30T03:09:47;95940.19;;;-2.88;100.00
11487;BME280;10510;47.942;9.442;2024-01-30T03:11:48;95938.63;;;-2.91;100.00
11487;BME280;10510;47.942;9.442;2024-01-30T03:13:48;95934.47;;;-2.93;100.00
11487;BME280;10510;47.942;9.442;2024-01-30T03:15:49;95929.50;;;-2.97;100.00
11487;BME280;10510;47.942;9.442;2024-01-30T03:17:49;95932.94;;;-2.98;100.00
11487;BME280;10510;47.942;9.442;2024-01-30T03:19:50;95936.47;;;-3.00;100.00
11487;BME280;10510;47.942;9.442;2024-01-30T03:21:50;95934.81;;;-3.01;100.00
11487;BME280;10510;47.942;9.442;2024-01-30T03:23:51;95929.69;;;-3.01;100.00
11487;BME280;10510;47.942;9.442;2024-01-30T03:25:51;95928.94;;;-3.03;100.00
11487;BME280;10510;47.942;9.442;2024-01-30T03:27:51;95932.41;;;-3.04;100.00
11487;BME280;10510;47.942;9.442;2024-01-30T03:29:52;95935.78;;;-3.04;100.00
11487;BME280;10510;47.942;9.442;2024-01-30T03:31:52;95928.19;;;-3.05;100.00
11487;BME280;10510;47.942;9.442;2024-01-30T03:33:53;95922.31;;;-3.07;100.00
11487;BME280;10510;47.942;9.442;2024-01-30T03:35:53;95925.81;;;-3.10;100.00
11487;BME280;10510;47.942;9.442;2024-01-30T03:37:53;95931.84;;;-3.11;100.00
11487;BME280;10510;47.942;9.442;2024-01-30T03:39:53;95928.47;;;-3.11;100.00
11487;BME280;10510;47.942;9.442;2024-01-30T03:41:54;95925.19;;;-3.15;100.00
11487;BME280;10510;47.942;9.442;2024-01-30T03:43:54;95925.28;;;-3.16;100.00
11487;BME280;10510;47.942;9.442;2024-01-30T03:45:54;95923.53;;;-3.16;100.00
11487;BME280;10510;47.942;9.442;2024-01-30T03:47:55;95920.03;;;-3.13;100.00
11487;BME280;10510;47.942;9.442;2024-01-30T03:49:55;95920.66;;;-3.08;100.00
11487;BME280;10510;47.942;9.442;2024-01-30T03:51:55;95921.41;;;-3.06;100.00
11487;BME280;10510;47.942;9.442;2024-01-30T03:53:56;95918.78;;;-3.05;100.00
11487;BME280;10510;47.942;9.442;2024-01-30T03:55:56;95917.97;;;-3.05;100.00
11487;BME280;10510;47.942;9.442;2024-01-30T03:57:56;95917.97;;;-3.05;100.00
11487;BME280;10510;47.942;9.442;2024-01-30T03:59:57;95916.28;;;-3.06;100.00
11487;BME280;10510;47.942;9.442;2024-01-30T04:01:57;95919.59;;;-3.04;100.00
11487;BME280;10510;47.942;9.442;2024-01-30T04:03:58;95915.25;;;-3.02;100.00
11487;BME280;10510;47.942;9.442;2024-01-30T04:05:58;95918.69;;;-3.03;100.00
11487;BME280;10510;47.942;9.442;2024-01-30T04:07:59;95917.88;;;-3.04;100.00
11487;BME280;10510;47.942;9.442;2024-01-30T04:09:59;95918.69;;;-3.03;100.00
11487;BME280;10510;47.942;9.442;2024-01-30T04:11:59;95912.84;;;-3.05;100.00
11487;BME280;10510;47.942;9.442;2024-01-30T04:14:00;95912.16;;;-3.09;100.00
11487;BME280;10510;47.942;9.442;2024-01-30T04:16:00;95920.72;;;-3.10;100.00
11487;BME280;10510;47.942;9.442;2024-01-30T04:18:03;95915.53;;;-3.08;100.00
11487;BME280;10510;47.942;9.442;2024-01-30T04:20:04;95918.84;;;-3.06;100.00
11487;BME280;10510;47.942;9.442;2024-01-30T04:22:05;95910.34;;;-3.07;100.00
11487;BME280;10510;47.942;9.442;2024-01-30T04:24:05;95915.44;;;-3.07;100.00
11487;BME280;10510;47.942;9.442;2024-01-30T04:26:06;95916.38;;;-3.08;100.00
11487;BME280;10510;47.942;9.442;2024-01-30T04:28:06;95915.44;;;-3.07;100.00
11487;BME280;10510;47.942;9.442;2024-01-30T04:30:07;95914.50;;;-3.04;100.00
11487;BME280;10510;47.942;9.442;2024-01-30T04:32:07;95912.75;;;-3.04;100.00
11487;BME280;10510;47.942;9.442;2024-01-30T04:34:07;95920.44;;;-3.04;100.00
11487;BME280;10510;47.942;9.442;2024-01-30T04:36:08;95914.50;;;-3.04;100.00
11487;BME280;10510;47.942;9.442;2024-01-30T04:38:11;95919.75;;;-3.07;100.00
11487;BME280;10510;47.942;9.442;2024-01-30T04:40:12;95915.53;;;-3.08;100.00
11487;BME280;10510;47.942;9.442;2024-01-30T04:42:12;95918.00;;;-3.07;100.00
11487;BME280;10510;47.942;9.442;2024-01-30T04:44:13;95921.41;;;-3.06;100.00
11487;BME280;10510;47.942;9.442;2024-01-30T04:46:13;95915.44;;;-3.07;100.00
11487;BME280;10510;47.942;9.442;2024-01-30T04:48:13;95923.13;;;-3.07;100.00
11487;BME280;10510;47.942;9.442;2024-01-30T04:50:14;95920.66;;;-3.08;100.00
11487;BME280;10510;47.942;9.442;2024-01-30T04:52:14;95921.53;;;-3.09;100.00
11487;BME280;10510;47.942;9.442;2024-01-30T04:54:14;95926.88;;;-3.14;100.00
11487;BME280;10510;47.942;9.442;2024-01-30T04:56:14;95919.19;;;-3.14;100.00
11487;BME280;10510;47.942;9.442;2024-01-30T04:58:15;95917.53;;;-3.15;100.00
11487;BME280;10510;47.942;9.442;2024-01-30T05:00:15;95916.84;;;-3.18;100.00
11487;BME280;10510;47.942;9.442;2024-01-30T05:02:16;95924.59;;;-3.20;100.00
11487;BME280;10510;47.942;9.442;2024-01-30T05:04:16;95923.78;;;-3.21;100.00
11487;BME280;10510;47.942;9.442;2024-01-30T05:06:26;95934.00;;;-3.21;100.00
11487;BME280;10510;47.942;9.442;2024-01-30T05:08:27;95930.59;;;-3.21;100.00
11487;BME280;10510;47.942;9.442;2024-01-30T05:10:27;95936.56;;;-3.21;100.00
11487;BME280;10510;47.942;9.442;2024-01-30T05:12:29;95933.09;;;-3.20;100.00
11487;BME280;10510;47.942;9.442;2024-01-30T05:14:29;95942.50;;;-3.20;100.00
11487;BME280;10510;47.942;9.442;2024-01-30T05:16:31;95934.06;;;-3.22;100.00
11487;BME280;10510;47.942;9.442;2024-01-30T05:18:31;95939.22;;;-3.24;100.00
11487;BME280;10510;47.942;9.442;2024-01-30T05:20:31;95943.47;;;-3.23;100.00
11487;BME280;10510;47.942;9.442;2024-01-30T05:22:32;95944.34;;;-3.24;100.00
11487;BME280;10510;47.942;9.442;2024-01-30T05:24:32;95949.41;;;-3.22;100.00
11487;BME280;10510;47.942;9.442;2024-01-30T05:26:33;95954.50;;;-3.22;100.00
11487;BME280;10510;47.942;9.442;2024-01-30T05:28:33;95956.25;;;-3.23;100.00
11487;BME280;10510;47.942;9.442;2024-01-30T05:30:33;95955.56;;;-3.26;100.00
11487;BME280;10510;47.942;9.442;2024-01-30T05:32:33;95956.53;;;-3.29;100.00
11487;BME280;10510;47.942;9.442;2024-01-30T05:34:35;95955.69;;;-3.29;100.00
11487;BME280;10510;47.942;9.442;2024-01-30T05:36:35;95961.63;;;-3.29;100.00
11487;BME280;10510;47.942;9.442;2024-01-30T05:38:35;95957.25;;;-3.27;100.00
11487;BME280;10510;47.942;9.442;2024-01-30T05:40:36;95959.69;;;-3.24;100.00
11487;BME280;10510;47.942;9.442;2024-01-30T05:42:36;95955.34;;;-3.22;100.00
11487;BME280;10510;47.942;9.442;2024-01-30T05:44:37;95961.38;;;-3.23;100.00
11487;BME280;10510;47.942;9.442;2024-01-30T05:46:37;95958.81;;;-3.23;100.00
11487;BME280;10510;47.942;9.442;2024-01-30T05:48:37;95951.19;;;-3.24;100.00
11487;BME280;10510;47.942;9.442;2024-01-30T05:50:37;95952.16;;;-3.27;100.00
11487;BME280;10510;47.942;9.442;2024-01-30T05:52:38;95958.16;;;-3.28;100.00
11487;BME280;10510;47.942;9.442;2024-01-30T05:54:38;95950.50;;;-3.28;100.00
11487;BME280;10510;47.942;9.442;2024-01-30T05:56:38;95956.31;;;-3.24;100.00
11487;BME280;10510;47.942;9.442;2024-01-30T05:58:38;95953.00;;;-3.26;100.00
11487;BME280;10510;47.942;9.442;2024-01-30T06:00:39;95963.16;;;-3.25;100.00
11487;BME280;10510;47.942;9.442;2024-01-30T06:02:39;95961.41;;;-3.24;100.00
11487;BME280;10510;47.942;9.442;2024-01-30T06:04:39;95965.66;;;-3.23;100.00
11487;BME280;10510;47.942;9.442;2024-01-30T06:06:40;95960.53;;;-3.23;100.00
11487;BME280;10510;47.942;9.442;2024-01-30T06:08:41;95958.81;;;-3.23;100.00
11487;BME280;10510;47.942;9.442;2024-01-30T06:10:41;95958.03;;;-3.25;100.00
11487;BME280;10510;47.942;9.442;2024-01-30T06:12:41;95963.16;;;-3.25;100.00
11487;BME280;10510;47.942;9.442;2024-01-30T06:14:41;95962.25;;;-3.24;100.00
11487;BME280;10510;47.942;9.442;2024-01-30T06:16:42;95956.25;;;-3.23;100.00
11487;BME280;10510;47.942;9.442;2024-01-30T06:18:42;95952.91;;;-3.25;100.00
11487;BME280;10510;47.942;9.442;2024-01-30T06:20:43;95954.56;;;-3.24;100.00
11487;BME280;10510;47.942;9.442;2024-01-30T06:22:43;95950.34;;;-3.25;100.00
11487;BME280;10510;47.942;9.442;2024-01-30T06:24:43;95949.59;;;-3.27;100.00
11487;BME280;10510;47.942;9.442;2024-01-30T06:26:45;95950.34;;;-3.25;100.00
11487;BME280;10510;47.942;9.442;2024-01-30T06:28:45;95952.88;;;-3.23;100.00
11487;BME280;10510;47.942;9.442;2024-01-30T06:30:46;95954.56;;;-3.24;100.00
11487;BME280;10510;47.942;9.442;2024-01-30T06:32:46;95959.69;;;-3.24;100.00
11487;BME280;10510;47.942;9.442;2024-01-30T06:34:46;95953.59;;;-3.21;100.00
11487;BME280;10510;47.942;9.442;2024-01-30T06:36:47;95957.75;;;-3.18;100.00
11487;BME280;10510;47.942;9.442;2024-01-30T06:38:47;95955.16;;;-3.17;100.00
11487;BME280;10510;47.942;9.442;2024-01-30T06:40:47;95954.25;;;-3.16;100.00
11487;BME280;10510;47.942;9.442;2024-01-30T06:42:47;95959.31;;;-3.14;100.00
11487;BME280;10510;47.942;9.442;2024-01-30T06:44:48;95961.63;;;-3.10;100.00
11487;BME280;10510;47.942;9.442;2024-01-30T06:46:48;95964.84;;;-3.05;100.00
11487;BME280;10510;47.942;9.442;2024-01-30T06:48:48;95960.41;;;-3.01;100.00
11487;BME280;10510;47.942;9.442;2024-01-30T06:50:49;95962.00;;;-2.99;100.00
11487;BME280;10510;47.942;9.442;2024-01-30T06:52:50;95957.66;;;-2.97;100.00
11487;BME280;10510;47.942;9.442;2024-01-30T06:54:51;95957.69;;;-2.98;100.00
11487;BME280;10510;47.942;9.442;2024-01-30T06:56:51;95970.63;;;-3.01;100.00
11487;BME280;10510;47.942;9.442;2024-01-30T06:58:51;95971.47;;;-3.01;100.00
11487;BME280;10510;47.942;9.442;2024-01-30T07:00:52;95963.72;;;-2.99;100.00
11487;BME280;10510;47.942;9.442;2024-01-30T07:02:52;95968.69;;;-2.96;100.00
11487;BME280;10510;47.942;9.442;2024-01-30T07:04:53;95968.47;;;-2.91;100.00
11487;BME280;10510;47.942;9.442;2024-01-30T07:06:53;95964.97;;;-2.89;100.00
11487;BME280;10510;47.942;9.442;2024-01-30T07:08:53;95974.19;;;-2.85;100.00
11487;BME280;10510;47.942;9.442;2024-01-30T07:10:54;95973.13;;;-2.81;100.00
11487;BME280;10510;47.942;9.442;2024-01-30T07:12:55;95974.78;;;-2.80;100.00
11487;BME280;10510;47.942;9.442;2024-01-30T07:14:55;95975.47;;;-2.76;100.00
11487;BME280;10510;47.942;9.442;2024-01-30T07:16:56;95969.25;;;-2.70;100.00
11487;BME280;10510;47.942;9.442;2024-01-30T07:18:56;95973.25;;;-2.65;100.00
11487;BME280;10510;47.942;9.442;2024-01-30T07:20:57;95982.22;;;-2.56;100.00
11487;BME280;10510;47.942;9.442;2024-01-30T07:22:58;95975.94;;;-2.49;100.00
11487;BME280;10510;47.942;9.442;2024-01-30T07:24:58;95979.81;;;-2.40;100.00
11487;BME280;10510;47.942;9.442;2024-01-30T07:26:58;95977.63;;;-2.31;100.00
11487;BME280;10510;47.942;9.442;2024-01-30T07:28:59;95969.44;;;-2.20;100.00
11487;BME280;10510;47.942;9.442;2024-01-30T07:30:59;95970.75;;;-2.11;100.00
11487;BME280;10510;47.942;9.442;2024-01-30T07:33:00;95968.50;;;-2.00;100.00
11487;BME280;10510;47.942;9.442;2024-01-30T07:35:00;95975.63;;;-1.89;100.00
11487;BME280;10510;47.942;9.442;2024-01-30T07:37:00;95979.41;;;-1.79;100.00
11487;BME280;10510;47.942;9.442;2024-01-30T07:39:01;95975.56;;;-1.70;100.00
11487;BME280;10510;47.942;9.442;2024-01-30T07:41:01;95971.88;;;-1.65;100.00
11487;BME280;10510;47.942;9.442;2024-01-30T07:43:01;95974.66;;;-1.52;100.00
11487;BME280;10510;47.942;9.442;2024-01-30T07:45:03;95976.75;;;-1.43;100.00
11487;BME280;10510;47.942;9.442;2024-01-30T07:47:04;95971.13;;;-1.33;100.00
11487;BME280;10510;47.942;9.442;2024-01-30T07:49:05;95971.31;;;-1.21;100.00
11487;BME280;10510;47.942;9.442;2024-01-30T07:51:05;95979.13;;;-1.06;100.00
11487;BME280;10510;47.942;9.442;2024-01-30T07:53:05;95978.34;;;-0.91;100.00
11487;BME280;10510;47.942;9.442;2024-01-30T07:55:06;95980.19;;;-0.77;100.00
11487;BME280;10510;47.942;9.442;2024-01-30T07:57:08;95976.22;;;-0.67;100.00
11487;BME280;10510;47.942;9.442;2024-01-30T07:59:11;95984.09;;;-0.54;100.00
11487;BME280;10510;47.942;9.442;2024-01-30T08:01:11;95979.09;;;-0.41;100.00
11487;BME280;10510;47.942;9.442;2024-01-30T08:03:12;95985.31;;;-0.30;100.00
11487;BME280;10510;47.942;9.442;2024-01-30T08:05:13;95985.72;;;-0.21;100.00
11487;BME280;10510;47.942;9.442;2024-01-30T08:07:15;95984.31;;;-0.11;100.00
11487;BME280;10510;47.942;9.442;2024-01-30T08:09:15;95995.72;;;-0.01;100.00
11487;BME280;10510;47.942;9.442;2024-01-30T08:11:16;95999.16;;;0.14;100.00
11487;BME280;10510;47.942;9.442;2024-01-30T08:13:16;95992.44;;;0.27;100.00
11487;BME280;10510;47.942;9.442;2024-01-30T08:15:17;95994.53;;;0.35;100.00
11487;BME280;10510;47.942;9.442;2024-01-30T08:17:17;95990.72;;;0.42;100.00
11487;BME280;10510;47.942;9.442;2024-01-30T08:19:17;95991.25;;;0.47;100.00
11487;BME280;10510;47.942;9.442;2024-01-30T08:21:17;95993.78;;;0.63;100.00
11487;BME280;10510;47.942;9.442;2024-01-30T08:23:18;95985.97;;;0.79;100.00
11487;BME280;10510;47.942;9.442;2024-01-30T08:25:18;95987.75;;;0.93;100.00
11487;BME280;10510;47.942;9.442;2024-01-30T08:27:18;95987.38;;;1.13;100.00
11487;BME280;10510;47.942;9.442;2024-01-30T08:29:18;95982.78;;;1.32;100.00
11487;BME280;10510;47.942;9.442;2024-01-30T08:31:19;95982.25;;;1.54;100.00
11487;BME280;10510;47.942;9.442;2024-01-30T08:33:19;95984.59;;;1.72;100.00
11487;BME280;10510;47.942;9.442;2024-01-30T08:35:19;95991.09;;;1.92;100.00
11487;BME280;10510;47.942;9.442;2024-01-30T08:37:20;95993.31;;;2.50;100.00
11487;BME280;10510;47.942;9.442;2024-01-30T08:39:20;95985.75;;;3.37;100.00
11487;BME280;10510;47.942;9.442;2024-01-30T08:41:20;95980.97;;;4.04;100.00
11487;BME280;10510;47.942;9.442;2024-01-30T08:43:20;95978.91;;;4.45;100.00
11487;BME280;10510;47.942;9.442;2024-01-30T08:45:21;95982.03;;;4.84;100.00
11487;BME280;10510;47.942;9.442;2024-01-30T08:47:21;95980.06;;;5.10;100.00
11487;BME280;10510;47.942;9.442;2024-01-30T08:49:21;95983.41;;;5.89;100.00
11487;BME280;10510;47.942;9.442;2024-01-30T08:51:22;95982.56;;;6.64;100.00
11487;BME280;10510;47.942;9.442;2024-01-30T08:53:22;95979.84;;;7.17;100.00
11487;BME280;10510;47.942;9.442;2024-01-30T08:55:23;95977.97;;;7.60;100.00
11487;BME280;10510;47.942;9.442;2024-01-30T08:57:23;95978.69;;;7.71;100.00
11487;BME280;10510;47.942;9.442;2024-01-30T08:59:23;95985.75;;;8.00;100.00
11487;BME280;10510;47.942;9.442;2024-01-30T09:01:25;95986.72;;;8.38;100.00
11487;BME280;10510;47.942;9.442;2024-01-30T09:03:25;95990.19;;;8.58;100.00
11487;BME280;10510;47.942;9.442;2024-01-30T09:05:25;95985.63;;;8.89;100.00
11487;BME280;10510;47.942;9.442;2024-01-30T09:07:25;95987.13;;;8.92;100.00
11487;BME280;10510;47.942;9.442;2024-01-30T09:09:26;95993.91;;;8.65;100.00
11487;BME280;10510;47.942;9.442;2024-01-30T09:11:26;95995.41;;;8.38;100.00
11487;BME280;10510;47.942;9.442;2024-01-30T09:13:26;95995.09;;;8.12;100.00
11487;BME280;10510;47.942;9.442;2024-01-30T09:15:27;95994.94;;;8.04;100.00
11487;BME280;10510;47.942;9.442;2024-01-30T09:17:27;95994.81;;;8.25;100.00
11487;BME280;10510;47.942;9.442;2024-01-30T09:19:27;95994.69;;;9.32;100.00
11487;BME280;10510;47.942;9.442;2024-01-30T09:21:28;95998.03;;;10.35;100.00
11487;BME280;10510;47.942;9.442;2024-01-30T09:23:28;95994.28;;;11.17;100.00
11487;BME280;10510;47.942;9.442;2024-01-30T09:25:28;95994.59;;;11.74;100.00
11487;BME280;10510;47.942;9.442;2024-01-30T09:27:29;95996.91;;;11.77;100.00
11487;BME280;10510;47.942;9.442;2024-01-30T09:29:29;95997.03;;;11.76;100.00
11487;BME280;10510;47.942;9.442;2024-01-30T09:31:29;95998.72;;;12.27;100.00
11487;BME280;10510;47.942;9.442;2024-01-30T09:33:30;96006.47;;;12.78;100.00
11487;BME280;10510;47.942;9.442;2024-01-30T09:35:30;96002.47;;;12.25;100.00
11487;BME280;10510;47.942;9.442;2024-01-30T09:37:30;96010.34;;;10.96;100.00
11487;BME280;10510;47.942;9.442;2024-01-30T09:39:30;96008.28;;;10.46;100.00
11487;BME280;10510;47.942;9.442;2024-01-30T09:41:32;96007.41;;;10.99;100.00
11487;BME280;10510;47.942;9.442;2024-01-30T09:43:33;96011.56;;;12.88;100.00
11487;BME280;10510;47.942;9.442;2024-01-30T09:45:37;96003.28;;;14.66;100.00
11487;BME280;10510;47.942;9.442;2024-01-30T09:47:42;95995.78;;;15.98;100.00
11487;BME280;10510;47.942;9.442;2024-01-30T09:49:43;96000.09;;;17.00;100.00
11487;BME280;10510;47.942;9.442;2024-01-30T09:51:45;95997.53;;;16.85;100.00
11487;BME280;10510;47.942;9.442;2024-01-30T09:53:46;95997.25;;;15.86;100.00
11487;BME280;10510;47.942;9.442;2024-01-30T09:55:47;95994.94;;;16.70;100.00
11487;BME280;10510;47.942;9.442;2024-01-30T09:57:47;95989.25;;;18.07;100.00
11487;BME280;10510;47.942;9.442;2024-01-30T09:59:47;95989.50;;;19.00;100.00
11487;BME280;10510;47.942;9.442;2024-01-30T10:01:49;95988.66;;;19.66;100.00
11487;BME280;10510;47.942;9.442;2024-01-30T10:03:50;95997.41;;;19.67;100.00
11487;BME280;10510;47.942;9.442;2024-01-30T10:05:52;95997.00;;;18.77;100.00
11487;BME280;10510;47.942;9.442;2024-01-30T10:07:53;95993.00;;;18.33;100.00
11487;BME280;10510;47.942;9.442;2024-01-30T10:09:55;95989.97;;;18.43;100.00
11487;BME280;10510;47.942;9.442;2024-01-30T10:11:58;95987.88;;;18.25;100.00
11487;BME280;10510;47.942;9.442;2024-01-30T10:13:58;95990.84;;;17.67;100.00
11487;BME280;10510;47.942;9.442;2024-01-30T10:15:58;95995.66;;;17.57;100.00
11487;BME280;10510;47.942;9.442;2024-01-30T10:17:59;95995.06;;;17.05;100.00
11487;BME280;10510;47.942;9.442;2024-01-30T10:19:59;95995.56;;;16.72;100.00
11487;BME280;10510;47.942;9.442;2024-01-30T10:22:00;95992.94;;;16.72;100.00
11487;BME280;10510;47.942;9.442;2024-01-30T10:24:00;95989.91;;;16.32;100.00
11487;BME280;10510;47.942;9.442;2024-01-30T10:26:03;95987.06;;;16.34;100.00
11487;BME280;10510;47.942;9.442;2024-01-30T10:28:04;95989.50;;;15.99;100.00
11487;BME280;10510;47.942;9.442;2024-01-30T10:30:05;95978.75;;;15.27;100.00